sensor_id;sensor_type;location;lat;lon;timestamp;P1;durP1;ratioP1;P2;durP2;ratioP2
26600;SDS011;14241;49.260;10.496;2022-07-29T00:01:16;5.55;;;2.10;;
26600;SDS011;14241;49.260;10.496;2022-07-29T00:03:42;4.47;;;1.88;;
26600;SDS011;14241;49.260;10.496;2022-07-29T00:06:07;5.10;;;2.28;;
26600;SDS011;14241;49.260;10.496;2022-07-29T00:08:32;6.23;;;2.07;;
26600;SDS011;14241;49.260;10.496;2022-07-29T00:10:57;6.53;;;2.10;;
26600;SDS011;14241;49.260;10.496;2022-07-29T00:13:23;2.30;;;1.75;;
26600;SDS011;14241;49.260;10.496;2022-07-29T00:15:48;6.77;;;2.00;;
26600;SDS011;14241;49.260;10.496;2022-07-29T00:18:13;3.83;;;2.20;;
26600;SDS011;14241;49.260;10.496;2022-07-29T00:20:38;2.93;;;2.00;;
26600;SDS011;14241;49.260;10.496;2022-07-29T00:23:03;6.97;;;2.30;;
26600;SDS011;14241;49.260;10.496;2022-07-29T00:25:29;5.47;;;2.17;;
26600;SDS011;14241;49.260;10.496;2022-07-29T00:27:54;3.70;;;2.10;;
26600;SDS011;14241;49.260;10.496;2022-07-29T00:30:19;4.47;;;2.10;;
26600;SDS011;14241;49.260;10.496;2022-07-29T00:32:44;2.90;;;1.90;;
26600;SDS011;14241;49.260;10.496;2022-07-29T00:35:10;4.13;;;2.43;;
26600;SDS011;14241;49.260;10.496;2022-07-29T00:37:53;9.38;;;2.13;;
26600;SDS011;14241;49.260;10.496;2022-07-29T00:40:19;3.88;;;1.90;;
26600;SDS011;14241;49.260;10.496;2022-07-29T00:42:44;5.13;;;1.90;;
26600;SDS011;14241;49.260;10.496;2022-07-29T00:45:10;4.18;;;2.35;;
26600;SDS011;14241;49.260;10.496;2022-07-29T00:47:35;5.78;;;2.08;;
26600;SDS011;14241;49.260;10.496;2022-07-29T00:50:00;5.70;;;2.50;;
26600;SDS011;14241;49.260;10.496;2022-07-29T00:52:26;3.17;;;1.90;;
26600;SDS011;14241;49.260;10.496;2022-07-29T00:54:51;5.18;;;2.03;;
26600;SDS011;14241;49.260;10.496;2022-07-29T00:57:17;5.15;;;2.28;;
26600;SDS011;14241;49.260;10.496;2022-07-29T00:59:42;6.47;;;2.53;;
26600;SDS011;14241;49.260;10.496;2022-07-29T01:02:07;3.57;;;1.93;;
26600;SDS011;14241;49.260;10.496;2022-07-29T01:04:33;10.00;;;2.17;;
26600;SDS011;14241;49.260;10.496;2022-07-29T01:06:59;6.53;;;2.45;;
26600;SDS011;14241;49.260;10.496;2022-07-29T01:09:25;4.15;;;2.10;;
26600;SDS011;14241;49.260;10.496;2022-07-29T01:11:51;6.57;;;2.20;;
26600;SDS011;14241;49.260;10.496;2022-07-29T01:14:17;3.75;;;2.13;;
26600;SDS011;14241;49.260;10.496;2022-07-29T01:16:49;5.22;;;2.00;;
26600;SDS011;14241;49.260;10.496;2022-07-29T01:21:51;4.30;;;2.33;;
26600;SDS011;14241;49.260;10.496;2022-07-29T01:26:47;5.22;;;2.47;;
26600;SDS011;14241;49.260;10.496;2022-07-29T01:31:44;4.50;;;2.28;;
26600;SDS011;14241;49.260;10.496;2022-07-29T01:34:13;3.90;;;2.20;;
26600;SDS011;14241;49.260;10.496;2022-07-29T01:36:43;3.15;;;1.92;;
26600;SDS011;14241;49.260;10.496;2022-07-29T01:39:10;3.90;;;2.47;;
26600;SDS011;14241;49.260;10.496;2022-07-29T01:41:38;3.20;;;1.90;;
26600;SDS011;14241;49.260;10.496;2022-07-29T01:44:11;5.68;;;2.20;;
26600;SDS011;14241;49.260;10.496;2022-07-29T01:46:38;5.32;;;2.30;;
26600;SDS011;14241;49.260;10.496;2022-07-29T01:49:11;4.38;;;2.10;;
26600;SDS011;14241;49.260;10.496;2022-07-29T01:51:49;6.35;;;2.30;;
26600;SDS011;14241;49.260;10.496;2022-07-29T01:54:32;3.60;;;1.92;;
26600;SDS011;14241;49.260;10.496;2022-07-29T01:56:59;3.47;;;2.20;;
26600;SDS011;14241;49.260;10.496;2022-07-29T01:59:24;4.68;;;2.80;;
26600;SDS011;14241;49.260;10.496;2022-07-29T02:01:51;3.72;;;2.50;;
26600;SDS011;14241;49.260;10.496;2022-07-29T02:04:17;5.95;;;2.40;;
26600;SDS011;14241;49.260;10.496;2022-07-29T02:06:44;4.60;;;2.47;;
26600;SDS011;14241;49.260;10.496;2022-07-29T02:09:10;5.32;;;2.60;;
26600;SDS011;14241;49.260;10.496;2022-07-29T02:11:37;3.22;;;2.10;;
26600;SDS011;14241;49.260;10.496;2022-07-29T02:14:03;5.05;;;2.33;;
26600;SDS011;14241;49.260;10.496;2022-07-29T02:16:29;4.70;;;2.65;;
26600;SDS011;14241;49.260;10.496;2022-07-29T02:18:55;3.38;;;2.08;;
26600;SDS011;14241;49.260;10.496;2022-07-29T02:21:22;5.15;;;2.60;;
26600;SDS011;14241;49.260;10.496;2022-07-29T02:23:49;3.92;;;2.40;;
26600;SDS011;14241;49.260;10.496;2022-07-29T02:26:15;2.95;;;2.20;;
26600;SDS011;14241;49.260;10.496;2022-07-29T02:28:41;3.10;;;2.30;;
26600;SDS011;14241;49.260;10.496;2022-07-29T02:31:07;3.38;;;2.50;;
26600;SDS011;14241;49.260;10.496;2022-07-29T02:33:33;5.30;;;2.50;;
26600;SDS011;14241;49.260;10.496;2022-07-29T02:35:58;3.45;;;2.40;;
26600;SDS011;14241;49.260;10.496;2022-07-29T02:38:24;3.88;;;2.10;;
26600;SDS011;14241;49.260;10.496;2022-07-29T02:41:10;6.28;;;2.85;;
26600;SDS011;14241;49.260;10.496;2022-07-29T02:43:36;5.45;;;2.55;;
26600;SDS011;14241;49.260;10.496;2022-07-29T02:46:02;4.05;;;2.47;;
26600;SDS011;14241;49.260;10.496;2022-07-29T02:48:34;3.72;;;2.58;;
26600;SDS011;14241;49.260;10.496;2022-07-29T02:51:06;2.58;;;2.20;;
26600;SDS011;14241;49.260;10.496;2022-07-29T02:53:32;5.72;;;2.55;;
26600;SDS011;14241;49.260;10.496;2022-07-29T02:56:13;3.72;;;2.47;;
26600;SDS011;14241;49.260;10.496;2022-07-29T02:58:45;3.33;;;2.63;;
26600;SDS011;14241;49.260;10.496;2022-07-29T03:01:13;5.93;;;2.92;;
26600;SDS011;14241;49.260;10.496;2022-07-29T03:03:39;4.63;;;2.67;;
26600;SDS011;14241;49.260;10.496;2022-07-29T03:06:07;3.58;;;2.55;;
26600;SDS011;14241;49.260;10.496;2022-07-29T03:08:33;5.25;;;2.83;;
26600;SDS011;14241;49.260;10.496;2022-07-29T03:10:59;3.33;;;2.33;;
26600;SDS011;14241;49.260;10.496;2022-07-29T03:13:25;5.00;;;2.47;;
26600;SDS011;14241;49.260;10.496;2022-07-29T03:15:51;5.18;;;2.47;;
26600;SDS011;14241;49.260;10.496;2022-07-29T03:18:17;5.35;;;2.58;;
26600;SDS011;14241;49.260;10.496;2022-07-29T03:20:42;6.03;;;2.38;;
26600;SDS011;14241;49.260;10.496;2022-07-29T03:23:08;5.27;;;2.77;;
26600;SDS011;14241;49.260;10.496;2022-07-29T03:25:33;4.18;;;2.92;;
26600;SDS011;14241;49.260;10.496;2022-07-29T03:27:58;6.55;;;3.20;;
26600;SDS011;14241;49.260;10.496;2022-07-29T03:30:24;7.22;;;2.70;;
26600;SDS011;14241;49.260;10.496;2022-07-29T03:32:50;7.22;;;3.05;;
26600;SDS011;14241;49.260;10.496;2022-07-29T03:35:16;3.50;;;2.60;;
26600;SDS011;14241;49.260;10.496;2022-07-29T03:37:44;3.53;;;2.67;;
26600;SDS011;14241;49.260;10.496;2022-07-29T03:40:11;7.43;;;2.80;;
26600;SDS011;14241;49.260;10.496;2022-07-29T03:42:37;4.05;;;2.72;;
26600;SDS011;14241;49.260;10.496;2022-07-29T03:45:10;5.78;;;2.55;;
26600;SDS011;14241;49.260;10.496;2022-07-29T03:47:37;9.48;;;3.17;;
26600;SDS011;14241;49.260;10.496;2022-07-29T03:50:07;4.75;;;2.50;;
26600;SDS011;14241;49.260;10.496;2022-07-29T03:52:33;3.53;;;2.78;;
26600;SDS011;14241;49.260;10.496;2022-07-29T03:54:59;5.15;;;2.70;;
26600;SDS011;14241;49.260;10.496;2022-07-29T03:57:25;5.00;;;2.58;;
26600;SDS011;14241;49.260;10.496;2022-07-29T03:59:52;5.15;;;3.08;;
26600;SDS011;14241;49.260;10.496;2022-07-29T04:02:19;8.20;;;2.75;;
26600;SDS011;14241;49.260;10.496;2022-07-29T04:04:45;4.82;;;3.13;;
26600;SDS011;14241;49.260;10.496;2022-07-29T04:07:13;4.53;;;3.03;;
26600;SDS011;14241;49.260;10.496;2022-07-29T04:09:39;3.17;;;2.42;;
26600;SDS011;14241;49.260;10.496;2022-07-29T04:12:04;4.13;;;3.03;;
26600;SDS011;14241;49.260;10.496;2022-07-29T04:14:31;5.22;;;2.63;;
26600;SDS011;14241;49.260;10.496;2022-07-29T04:16:56;5.22;;;3.35;;
26600;SDS011;14241;49.260;10.496;2022-07-29T04:19:21;6.03;;;2.78;;
26600;SDS011;14241;49.260;10.496;2022-07-29T04:21:47;7.63;;;2.88;;
26600;SDS011;14241;49.260;10.496;2022-07-29T04:24:12;5.27;;;3.10;;
26600;SDS011;14241;49.260;10.496;2022-07-29T04:26:37;4.15;;;2.60;;
26600;SDS011;14241;49.260;10.496;2022-07-29T04:29:03;6.80;;;3.13;;
26600;SDS011;14241;49.260;10.496;2022-07-29T04:31:28;4.75;;;2.97;;
26600;SDS011;14241;49.260;10.496;2022-07-29T04:33:53;7.80;;;2.80;;
26600;SDS011;14241;49.260;10.496;2022-07-29T04:36:19;7.23;;;3.00;;
26600;SDS011;14241;49.260;10.496;2022-07-29T04:38:44;4.80;;;2.93;;
26600;SDS011;14241;49.260;10.496;2022-07-29T04:41:09;6.20;;;3.27;;
26600;SDS011;14241;49.260;10.496;2022-07-29T04:43:34;5.17;;;2.70;;
26600;SDS011;14241;49.260;10.496;2022-07-29T04:46:00;8.32;;;2.83;;
26600;SDS011;14241;49.260;10.496;2022-07-29T04:48:26;3.97;;;3.00;;
26600;SDS011;14241;49.260;10.496;2022-07-29T04:50:51;6.15;;;3.05;;
26600;SDS011;14241;49.260;10.496;2022-07-29T04:53:17;6.57;;;3.47;;
26600;SDS011;14241;49.260;10.496;2022-07-29T04:55:43;7.18;;;3.20;;
26600;SDS011;14241;49.260;10.496;2022-07-29T04:58:08;4.97;;;2.92;;
26600;SDS011;14241;49.260;10.496;2022-07-29T05:00:34;6.40;;;3.00;;
26600;SDS011;14241;49.260;10.496;2022-07-29T05:02:59;8.38;;;3.13;;
26600;SDS011;14241;49.260;10.496;2022-07-29T05:05:24;6.55;;;3.03;;
26600;SDS011;14241;49.260;10.496;2022-07-29T05:07:50;12.65;;;3.35;;
26600;SDS011;14241;49.260;10.496;2022-07-29T05:10:15;4.90;;;3.03;;
26600;SDS011;14241;49.260;10.496;2022-07-29T05:12:40;4.35;;;2.90;;
26600;SDS011;14241;49.260;10.496;2022-07-29T05:15:05;14.17;;;3.23;;
26600;SDS011;14241;49.260;10.496;2022-07-29T05:17:31;6.80;;;3.08;;
26600;SDS011;14241;49.260;10.496;2022-07-29T05:19:56;3.90;;;2.72;;
26600;SDS011;14241;49.260;10.496;2022-07-29T05:22:21;7.03;;;2.53;;
26600;SDS011;14241;49.260;10.496;2022-07-29T05:24:46;4.83;;;2.60;;
26600;SDS011;14241;49.260;10.496;2022-07-29T05:27:12;7.10;;;2.83;;
26600;SDS011;14241;49.260;10.496;2022-07-29T05:29:37;4.28;;;2.90;;
26600;SDS011;14241;49.260;10.496;2022-07-29T05:32:03;5.88;;;3.30;;
26600;SDS011;14241;49.260;10.496;2022-07-29T05:34:29;5.18;;;3.20;;
26600;SDS011;14241;49.260;10.496;2022-07-29T05:36:57;6.55;;;3.25;;
26600;SDS011;14241;49.260;10.496;2022-07-29T05:39:22;5.43;;;2.75;;
26600;SDS011;14241;49.260;10.496;2022-07-29T05:41:47;5.90;;;3.00;;
26600;SDS011;14241;49.260;10.496;2022-07-29T05:44:13;4.47;;;2.78;;
26600;SDS011;14241;49.260;10.496;2022-07-29T05:46:38;6.93;;;3.20;;
26600;SDS011;14241;49.260;10.496;2022-07-29T05:49:04;4.38;;;2.95;;
26600;SDS011;14241;49.260;10.496;2022-07-29T05:51:31;7.40;;;3.03;;
26600;SDS011;14241;49.260;10.496;2022-07-29T05:53:56;8.95;;;3.42;;
26600;SDS011;14241;49.260;10.496;2022-07-29T05:56:22;6.80;;;3.13;;
26600;SDS011;14241;49.260;10.496;2022-07-29T05:58:48;4.80;;;3.33;;
26600;SDS011;14241;49.260;10.496;2022-07-29T06:01:13;5.53;;;3.40;;
26600;SDS011;14241;49.260;10.496;2022-07-29T06:03:38;7.17;;;3.10;;
26600;SDS011;14241;49.260;10.496;2022-07-29T06:06:06;3.80;;;2.97;;
26600;SDS011;14241;49.260;10.496;2022-07-29T06:08:32;3.80;;;2.63;;
26600;SDS011;14241;49.260;10.496;2022-07-29T06:10:58;5.47;;;2.90;;
26600;SDS011;14241;49.260;10.496;2022-07-29T06:13:23;4.23;;;2.90;;
26600;SDS011;14241;49.260;10.496;2022-07-29T06:15:49;5.07;;;3.22;;
26600;SDS011;14241;49.260;10.496;2022-07-29T06:18:14;3.90;;;2.78;;
26600;SDS011;14241;49.260;10.496;2022-07-29T06:20:39;5.30;;;2.67;;
26600;SDS011;14241;49.260;10.496;2022-07-29T06:23:04;6.10;;;3.10;;
26600;SDS011;14241;49.260;10.496;2022-07-29T06:25:30;3.13;;;2.67;;
26600;SDS011;14241;49.260;10.496;2022-07-29T06:27:56;8.82;;;3.05;;
26600;SDS011;14241;49.260;10.496;2022-07-29T06:30:22;5.55;;;2.95;;
26600;SDS011;14241;49.260;10.496;2022-07-29T06:32:47;3.38;;;2.63;;
26600;SDS011;14241;49.260;10.496;2022-07-29T06:35:13;10.50;;;2.72;;
26600;SDS011;14241;49.260;10.496;2022-07-29T06:37:38;7.68;;;3.42;;
26600;SDS011;14241;49.260;10.496;2022-07-29T06:40:03;5.90;;;3.20;;
26600;SDS011;14241;49.260;10.496;2022-07-29T06:42:47;7.60;;;2.70;;
26600;SDS011;14241;49.260;10.496;2022-07-29T06:45:12;3.30;;;2.40;;
26600;SDS011;14241;49.260;10.496;2022-07-29T06:47:38;5.90;;;2.47;;
26600;SDS011;14241;49.260;10.496;2022-07-29T06:50:04;5.18;;;2.92;;
26600;SDS011;14241;49.260;10.496;2022-07-29T06:52:29;6.43;;;2.90;;
26600;SDS011;14241;49.260;10.496;2022-07-29T06:54:55;5.13;;;2.42;;
26600;SDS011;14241;49.260;10.496;2022-07-29T06:57:20;3.63;;;2.55;;
26600;SDS011;14241;49.260;10.496;2022-07-29T06:59:46;5.22;;;2.45;;
26600;SDS011;14241;49.260;10.496;2022-07-29T07:02:11;7.57;;;2.88;;
26600;SDS011;14241;49.260;10.496;2022-07-29T07:04:36;7.20;;;2.40;;
26600;SDS011;14241;49.260;10.496;2022-07-29T07:07:02;3.28;;;2.40;;
26600;SDS011;14241;49.260;10.496;2022-07-29T07:09:27;4.13;;;2.58;;
26600;SDS011;14241;49.260;10.496;2022-07-29T07:11:52;3.17;;;2.57;;
26600;SDS011;14241;49.260;10.496;2022-07-29T07:14:18;2.97;;;2.60;;
26600;SDS011;14241;49.260;10.496;2022-07-29T07:16:43;2.60;;;2.17;;
26600;SDS011;14241;49.260;10.496;2022-07-29T07:19:08;2.97;;;2.17;;
26600;SDS011;14241;49.260;10.496;2022-07-29T07:21:33;4.38;;;2.40;;
26600;SDS011;14241;49.260;10.496;2022-07-29T07:23:59;3.83;;;2.07;;
26600;SDS011;14241;49.260;10.496;2022-07-29T07:26:25;3.75;;;2.35;;
26600;SDS011;14241;49.260;10.496;2022-07-29T07:28:51;3.80;;;2.35;;
26600;SDS011;14241;49.260;10.496;2022-07-29T07:31:16;3.70;;;2.17;;
26600;SDS011;14241;49.260;10.496;2022-07-29T07:33:41;4.00;;;2.00;;
26600;SDS011;14241;49.260;10.496;2022-07-29T07:36:07;4.70;;;2.45;;
26600;SDS011;14241;49.260;10.496;2022-07-29T07:38:32;5.77;;;2.67;;
26600;SDS011;14241;49.260;10.496;2022-07-29T07:40:57;4.38;;;2.35;;
26600;SDS011;14241;49.260;10.496;2022-07-29T07:43:23;3.05;;;2.25;;
26600;SDS011;14241;49.260;10.496;2022-07-29T07:45:48;3.45;;;2.13;;
26600;SDS011;14241;49.260;10.496;2022-07-29T07:48:13;3.23;;;1.80;;
26600;SDS011;14241;49.260;10.496;2022-07-29T07:50:38;4.03;;;2.00;;
26600;SDS011;14241;49.260;10.496;2022-07-29T07:53:04;6.05;;;2.38;;
26600;SDS011;14241;49.260;10.496;2022-07-29T07:55:29;3.25;;;2.10;;
26600;SDS011;14241;49.260;10.496;2022-07-29T07:57:54;3.13;;;2.05;;
26600;SDS011;14241;49.260;10.496;2022-07-29T08:00:20;2.53;;;1.97;;
26600;SDS011;14241;49.260;10.496;2022-07-29T08:02:46;6.22;;;1.90;;
26600;SDS011;14241;49.260;10.496;2022-07-29T08:05:11;4.25;;;2.20;;
26600;SDS011;14241;49.260;10.496;2022-07-29T08:07:40;4.35;;;2.28;;
26600;SDS011;14241;49.260;10.496;2022-07-29T08:10:06;2.57;;;1.80;;
26600;SDS011;14241;49.260;10.496;2022-07-29T08:12:31;2.15;;;1.70;;
26600;SDS011;14241;49.260;10.496;2022-07-29T08:14:56;2.55;;;1.88;;
26600;SDS011;14241;49.260;10.496;2022-07-29T08:17:21;2.03;;;1.83;;
26600;SDS011;14241;49.260;10.496;2022-07-29T08:19:47;6.55;;;1.67;;
26600;SDS011;14241;49.260;10.496;2022-07-29T08:22:13;4.50;;;1.83;;
26600;SDS011;14241;49.260;10.496;2022-07-29T08:24:39;3.92;;;2.00;;
26600;SDS011;14241;49.260;10.496;2022-07-29T08:27:17;4.13;;;1.83;;
26600;SDS011;14241;49.260;10.496;2022-07-29T08:29:43;2.50;;;1.85;;
26600;SDS011;14241;49.260;10.496;2022-07-29T08:32:08;2.55;;;1.67;;
26600;SDS011;14241;49.260;10.496;2022-07-29T08:34:33;4.95;;;1.90;;
26600;SDS011;14241;49.260;10.496;2022-07-29T08:36:59;7.32;;;2.25;;
26600;SDS011;14241;49.260;10.496;2022-07-29T08:39:24;2.00;;;1.65;;
26600;SDS011;14241;49.260;10.496;2022-07-29T08:41:50;3.65;;;1.77;;
26600;SDS011;14241;49.260;10.496;2022-07-29T08:44:19;2.15;;;1.52;;
26600;SDS011;14241;49.260;10.496;2022-07-29T08:46:44;1.75;;;1.48;;
26600;SDS011;14241;49.260;10.496;2022-07-29T08:49:09;3.35;;;2.10;;
26600;SDS011;14241;49.260;10.496;2022-07-29T08:51:35;3.67;;;1.73;;
26600;SDS011;14241;49.260;10.496;2022-07-29T08:54:01;6.15;;;1.90;;
26600;SDS011;14241;49.260;10.496;2022-07-29T08:56:26;1.92;;;1.50;;
26600;SDS011;14241;49.260;10.496;2022-07-29T08:58:52;2.20;;;1.58;;
26600;SDS011;14241;49.260;10.496;2022-07-29T09:01:21;5.78;;;2.03;;
26600;SDS011;14241;49.260;10.496;2022-07-29T09:03:46;3.15;;;1.90;;
26600;SDS011;14241;49.260;10.496;2022-07-29T09:06:17;2.63;;;2.05;;
26600;SDS011;14241;49.260;10.496;2022-07-29T09:08:42;3.25;;;2.00;;
26600;SDS011;14241;49.260;10.496;2022-07-29T09:11:08;1.67;;;1.45;;
26600;SDS011;14241;49.260;10.496;2022-07-29T09:13:34;5.28;;;1.70;;
26600;SDS011;14241;49.260;10.496;2022-07-29T09:15:59;7.15;;;1.73;;
26600;SDS011;14241;49.260;10.496;2022-07-29T09:18:38;5.25;;;1.80;;
26600;SDS011;14241;49.260;10.496;2022-07-29T09:21:04;2.63;;;1.73;;
26600;SDS011;14241;49.260;10.496;2022-07-29T09:26:27;3.67;;;1.60;;
26600;SDS011;14241;49.260;10.496;2022-07-29T09:28:52;3.67;;;1.70;;
26600;SDS011;14241;49.260;10.496;2022-07-29T09:31:18;2.10;;;1.70;;
26600;SDS011;14241;49.260;10.496;2022-07-29T09:33:51;2.50;;;1.80;;
26600;SDS011;14241;49.260;10.496;2022-07-29T09:36:17;4.20;;;1.80;;
26600;SDS011;14241;49.260;10.496;2022-07-29T09:38:42;2.20;;;1.57;;
26600;SDS011;14241;49.260;10.496;2022-07-29T09:41:07;2.97;;;1.67;;
26600;SDS011;14241;49.260;10.496;2022-07-29T09:43:35;1.95;;;1.60;;
26600;SDS011;14241;49.260;10.496;2022-07-29T09:46:13;4.57;;;1.95;;
26600;SDS011;14241;49.260;10.496;2022-07-29T09:48:39;2.45;;;1.52;;
26600;SDS011;14241;49.260;10.496;2022-07-29T09:51:04;4.63;;;1.80;;
26600;SDS011;14241;49.260;10.496;2022-07-29T09:53:37;2.17;;;1.65;;
26600;SDS011;14241;49.260;10.496;2022-07-29T09:56:02;3.60;;;1.77;;
26600;SDS011;14241;49.260;10.496;2022-07-29T09:58:28;1.50;;;1.33;;
26600;SDS011;14241;49.260;10.496;2022-07-29T10:00:54;3.67;;;1.50;;
26600;SDS011;14241;49.260;10.496;2022-07-29T10:03:19;1.98;;;1.70;;
26600;SDS011;14241;49.260;10.496;2022-07-29T10:05:45;3.47;;;1.25;;
26600;SDS011;14241;49.260;10.496;2022-07-29T10:08:11;1.63;;;1.38;;
26600;SDS011;14241;49.260;10.496;2022-07-29T10:10:40;2.63;;;1.30;;
26600;SDS011;14241;49.260;10.496;2022-07-29T10:13:10;6.63;;;1.80;;
26600;SDS011;14241;49.260;10.496;2022-07-29T10:15:37;2.10;;;1.55;;
26600;SDS011;14241;49.260;10.496;2022-07-29T10:18:04;2.03;;;1.30;;
26600;SDS011;14241;49.260;10.496;2022-07-29T10:20:29;1.50;;;1.40;;
26600;SDS011;14241;49.260;10.496;2022-07-29T10:22:55;3.40;;;1.50;;
26600;SDS011;14241;49.260;10.496;2022-07-29T10:25:20;1.52;;;1.17;;
26600;SDS011;14241;49.260;10.496;2022-07-29T10:27:47;1.83;;;1.40;;
26600;SDS011;14241;49.260;10.496;2022-07-29T10:30:13;2.38;;;1.58;;
26600;SDS011;14241;49.260;10.496;2022-07-29T10:32:44;2.13;;;1.52;;
26600;SDS011;14241;49.260;10.496;2022-07-29T10:35:18;2.13;;;1.48;;
26600;SDS011;14241;49.260;10.496;2022-07-29T10:43:29;2.55;;;1.60;;
26600;SDS011;14241;49.260;10.496;2022-07-29T10:45:58;2.40;;;1.48;;
26600;SDS011;14241;49.260;10.496;2022-07-29T10:48:24;2.20;;;1.75;;
26600;SDS011;14241;49.260;10.496;2022-07-29T10:50:59;2.65;;;1.45;;
26600;SDS011;14241;49.260;10.496;2022-07-29T10:53:45;2.40;;;1.60;;
26600;SDS011;14241;49.260;10.496;2022-07-29T10:56:26;4.43;;;1.30;;
26600;SDS011;14241;49.260;10.496;2022-07-29T11:01:35;1.50;;;1.40;;
26600;SDS011;14241;49.260;10.496;2022-07-29T11:04:00;2.80;;;1.60;;
26600;SDS011;14241;49.260;10.496;2022-07-29T11:06:26;3.53;;;1.63;;
26600;SDS011;14241;49.260;10.496;2022-07-29T11:09:14;1.58;;;1.48;;
26600;SDS011;14241;49.260;10.496;2022-07-29T11:11:40;2.38;;;1.65;;
26600;SDS011;14241;49.260;10.496;2022-07-29T11:14:06;2.78;;;1.70;;
26600;SDS011;14241;49.260;10.496;2022-07-29T11:17:17;2.72;;;1.70;;
26600;SDS011;14241;49.260;10.496;2022-07-29T11:19:20;3.17;;;1.80;;
26600;SDS011;14241;49.260;10.496;2022-07-29T11:21:45;2.83;;;1.60;;
26600;SDS011;14241;49.260;10.496;2022-07-29T11:26:41;2.50;;;1.48;;
26600;SDS011;14241;49.260;10.496;2022-07-29T11:29:14;2.22;;;1.60;;
26600;SDS011;14241;49.260;10.496;2022-07-29T11:31:43;3.67;;;1.47;;
26600;SDS011;14241;49.260;10.496;2022-07-29T11:39:27;1.55;;;1.45;;
26600;SDS011;14241;49.260;10.496;2022-07-29T11:41:52;2.10;;;1.50;;
26600;SDS011;14241;49.260;10.496;2022-07-29T11:44:18;3.22;;;1.50;;
26600;SDS011;14241;49.260;10.496;2022-07-29T11:47:04;1.42;;;1.20;;
26600;SDS011;14241;49.260;10.496;2022-07-29T11:49:29;3.00;;;1.23;;
26600;SDS011;14241;49.260;10.496;2022-07-29T11:51:56;1.30;;;1.20;;
26600;SDS011;14241;49.260;10.496;2022-07-29T11:54:31;1.65;;;1.23;;
26600;SDS011;14241;49.260;10.496;2022-07-29T11:56:57;3.25;;;1.02;;
26600;SDS011;14241;49.260;10.496;2022-07-29T11:59:22;1.20;;;1.10;;
26600;SDS011;14241;49.260;10.496;2022-07-29T12:01:54;1.48;;;1.38;;
26600;SDS011;14241;49.260;10.496;2022-07-29T12:04:19;1.65;;;1.08;;
26600;SDS011;14241;49.260;10.496;2022-07-29T12:06:51;1.48;;;1.20;;
26600;SDS011;14241;49.260;10.496;2022-07-29T12:09:17;1.75;;;1.17;;
26600;SDS011;14241;49.260;10.496;2022-07-29T12:11:42;1.80;;;1.30;;
26600;SDS011;14241;49.260;10.496;2022-07-29T12:14:08;2.00;;;1.00;;
26600;SDS011;14241;49.260;10.496;2022-07-29T12:16:36;2.27;;;1.33;;
26600;SDS011;14241;49.260;10.496;2022-07-29T12:19:02;4.45;;;1.50;;
26600;SDS011;14241;49.260;10.496;2022-07-29T12:21:29;1.30;;;1.17;;
26600;SDS011;14241;49.260;10.496;2022-07-29T12:23:54;3.28;;;1.10;;
26600;SDS011;14241;49.260;10.496;2022-07-29T12:26:20;1.02;;;0.95;;
26600;SDS011;14241;49.260;10.496;2022-07-29T12:28:45;1.83;;;0.95;;
26600;SDS011;14241;49.260;10.496;2022-07-29T12:31:14;1.80;;;1.13;;
26600;SDS011;14241;49.260;10.496;2022-07-29T12:33:40;1.80;;;1.35;;
26600;SDS011;14241;49.260;10.496;2022-07-29T12:36:05;3.47;;;1.35;;
26600;SDS011;14241;49.260;10.496;2022-07-29T12:38:31;3.03;;;1.23;;
26600;SDS011;14241;49.260;10.496;2022-07-29T12:40:56;2.85;;;1.00;;
26600;SDS011;14241;49.260;10.496;2022-07-29T12:43:22;3.72;;;1.08;;
26600;SDS011;14241;49.260;10.496;2022-07-29T12:45:51;1.88;;;1.02;;
26600;SDS011;14241;49.260;10.496;2022-07-29T12:48:17;1.88;;;1.38;;
26600;SDS011;14241;49.260;10.496;2022-07-29T12:50:58;1.83;;;1.40;;
26600;SDS011;14241;49.260;10.496;2022-07-29T12:53:24;2.70;;;1.48;;
26600;SDS011;14241;49.260;10.496;2022-07-29T12:55:50;3.88;;;1.58;;
26600;SDS011;14241;49.260;10.496;2022-07-29T12:58:38;3.42;;;1.60;;
26600;SDS011;14241;49.260;10.496;2022-07-29T13:03:29;4.23;;;1.80;;
26600;SDS011;14241;49.260;10.496;2022-07-29T13:06:05;2.30;;;1.50;;
26600;SDS011;14241;49.260;10.496;2022-07-29T13:08:31;1.40;;;1.30;;
26600;SDS011;14241;49.260;10.496;2022-07-29T13:10:56;6.10;;;2.17;;
26600;SDS011;14241;49.260;10.496;2022-07-29T13:13:21;2.08;;;1.45;;
26600;SDS011;14241;49.260;10.496;2022-07-29T13:15:47;1.87;;;1.60;;
26600;SDS011;14241;49.260;10.496;2022-07-29T13:18:30;1.83;;;1.42;;
26600;SDS011;14241;49.260;10.496;2022-07-29T13:20:56;4.15;;;1.98;;
26600;SDS011;14241;49.260;10.496;2022-07-29T13:23:22;9.48;;;1.70;;
26600;SDS011;14241;49.260;10.496;2022-07-29T13:25:47;2.22;;;1.92;;
26600;SDS011;14241;49.260;10.496;2022-07-29T13:28:12;5.40;;;2.10;;
26600;SDS011;14241;49.260;10.496;2022-07-29T13:30:39;2.15;;;1.83;;
26600;SDS011;14241;49.260;10.496;2022-07-29T13:33:04;2.33;;;1.80;;
26600;SDS011;14241;49.260;10.496;2022-07-29T13:35:29;6.67;;;2.33;;
26600;SDS011;14241;49.260;10.496;2022-07-29T13:37:55;6.63;;;2.07;;
26600;SDS011;14241;49.260;10.496;2022-07-29T13:40:20;4.05;;;1.85;;
26600;SDS011;14241;49.260;10.496;2022-07-29T13:42:45;4.07;;;1.60;;
26600;SDS011;14241;49.260;10.496;2022-07-29T13:45:11;6.13;;;1.85;;
26600;SDS011;14241;49.260;10.496;2022-07-29T13:47:36;4.68;;;2.00;;
26600;SDS011;14241;49.260;10.496;2022-07-29T13:50:02;2.75;;;1.33;;
26600;SDS011;14241;49.260;10.496;2022-07-29T13:52:28;2.90;;;1.58;;
26600;SDS011;14241;49.260;10.496;2022-07-29T13:54:53;3.92;;;1.65;;
26600;SDS011;14241;49.260;10.496;2022-07-29T13:57:18;4.93;;;1.50;;
26600;SDS011;14241;49.260;10.496;2022-07-29T13:59:44;2.22;;;1.30;;
26600;SDS011;14241;49.260;10.496;2022-07-29T14:02:09;2.55;;;1.50;;
26600;SDS011;14241;49.260;10.496;2022-07-29T14:04:35;5.45;;;1.52;;
26600;SDS011;14241;49.260;10.496;2022-07-29T14:07:00;5.53;;;1.60;;
26600;SDS011;14241;49.260;10.496;2022-07-29T14:09:25;3.13;;;1.52;;
26600;SDS011;14241;49.260;10.496;2022-07-29T14:11:51;2.27;;;1.47;;
26600;SDS011;14241;49.260;10.496;2022-07-29T14:14:18;5.43;;;1.40;;
26600;SDS011;14241;49.260;10.496;2022-07-29T14:16:43;2.25;;;1.77;;
26600;SDS011;14241;49.260;10.496;2022-07-29T14:19:08;4.53;;;2.03;;
26600;SDS011;14241;49.260;10.496;2022-07-29T14:21:33;4.87;;;2.03;;
26600;SDS011;14241;49.260;10.496;2022-07-29T14:23:59;4.75;;;1.77;;
26600;SDS011;14241;49.260;10.496;2022-07-29T14:26:24;3.77;;;1.73;;
26600;SDS011;14241;49.260;10.496;2022-07-29T14:28:50;3.77;;;1.87;;
26600;SDS011;14241;49.260;10.496;2022-07-29T14:31:15;3.17;;;1.60;;
26600;SDS011;14241;49.260;10.496;2022-07-29T14:33:41;5.50;;;1.55;;
26600;SDS011;14241;49.260;10.496;2022-07-29T14:36:06;2.80;;;1.40;;
26600;SDS011;14241;49.260;10.496;2022-07-29T14:38:31;3.20;;;1.43;;
26600;SDS011;14241;49.260;10.496;2022-07-29T14:40:56;3.57;;;1.40;;
26600;SDS011;14241;49.260;10.496;2022-07-29T14:43:22;2.92;;;1.65;;
26600;SDS011;14241;49.260;10.496;2022-07-29T14:45:47;4.20;;;1.40;;
26600;SDS011;14241;49.260;10.496;2022-07-29T14:48:12;3.63;;;1.67;;
26600;SDS011;14241;49.260;10.496;2022-07-29T14:50:37;4.10;;;1.33;;
26600;SDS011;14241;49.260;10.496;2022-07-29T14:53:03;1.47;;;1.03;;
26600;SDS011;14241;49.260;10.496;2022-07-29T14:55:28;1.35;;;1.00;;
26600;SDS011;14241;49.260;10.496;2022-07-29T14:57:53;1.85;;;1.27;;
26600;SDS011;14241;49.260;10.496;2022-07-29T15:00:19;2.22;;;1.23;;